Ana Sayfa
METAR-TAF:

METAR-TAF

Havaalanları :

Guymon, Oklahoma, Amerika Birleşik Devletleri

Enlem: 36-40-54N, Boylam: 101-30-19W, yükseklik: 952 m

Güncel hava durumu gözlemi

Rapor saat 09:53 UTC de 59 dakika önce yapıldı.
Rüzgar batı/güneybatıdan 8 kt
Sıcaklık 3°C
Nem 87%
Basınç 1017 hPa
Görüş mesafesi: 16.1 km
Açık gökyüzü

METAR: KGUY 120953Z AUTO 24008KT 10SM CLR 03/01 A3003 RMK AO2 SLP160 T00330011

Saat: 04:52 (10:52 UTC)

Tahmin

Rapor saat 09:05 UTC de 1 saat ve 47 dakika önce yapıldı.
Ayın 12'si saat 09 UTC'den ayın 13'si saat 06 UTC'ye kadar geçerli Tahmin
Rüzgar batı/güneybatıdan 10 kt
Görüş mesafesi: 10 km
8000 ft yükseklikte az bulutlu
25000 ft yükseklikte parçalı bulutlu
Ayın 12'si saat 1300 UTC'den
Rüzgar batı/kuzeybatıdan 6 kt
Görüş mesafesi: 10 km
Açık gökyüzü

TAF: KGUY 120905Z 1209/1306 24010KT P6SM FEW080 SCT250 FM121300 29006KT P6SM SKC

4.000'den fazla havaalanı için hava durumu gözlemleri ve tahminleri (METAR ve TAF raporları).

Kullanılabilir istasyonlar harita üzerinde sarı ve kırmızı noktalarla gösterilir.

İstasyonun adını görmek için fareyi noktanın üzerinde gezdirin.

Sonrasında hava gözlem ve tahminlerini görmek için tıklayın.

Haritayı değiştirmek için: yaklaştırmak için siyah artı işaretli yeşil düğmeye ve uzaklaştırmak için de eksi işaretli düğmeye hızla tıklayın; bitişik haritalar için yeşil okları kullanın.


METAR-TAF: